Time;durP1;ratioP1;P1;durP2;ratioP2;P2;SDS_P1;SDS_P2;PMS_P1;PMS_P2;Temp;Humidity;BMP_temperature;BMP_pressure;BME280_temperature;BME280_humidity;BME280_pressure;Samples;Min_cycle;Max_cycle;Signal;HPM_P1;HPM_P2
2022/08/18 00:01:57;;;;;;;16.77;9.60;;;21.90;99.90;;;;;;5106465;27;20506;-62
2022/08/18 00:04:26;;;;;;;15.27;9.65;;;21.90;99.90;;;;;;5109800;27;20505;-62
2022/08/18 00:07:04;;;;;;;16.02;9.85;;;21.90;99.90;;;;;;5117664;27;20067;-62
2022/08/18 00:09:34;;;;;;;11.32;9.98;;;21.90;99.90;;;;;;5115059;27;20168;-62
2022/08/18 00:12:05;;;;;;;11.75;9.18;;;22.10;99.90;;;;;;5106985;27;20047;-63
2022/08/18 00:14:33;;;;;;;17.85;9.05;;;22.20;99.90;;;;;;5115151;27;20418;-62
2022/08/18 00:17:00;;;;;;;10.15;8.55;;;22.30;99.90;;;;;;5106632;27;20047;-63
2022/08/18 00:19:28;;;;;;;12.85;9.15;;;22.40;99.90;;;;;;5120653;27;20051;-61
2022/08/18 00:22:17;;;;;;;11.38;8.88;;;22.40;99.90;;;;;;5127805;27;20069;-64
2022/08/18 00:24:49;;;;;;;10.53;9.03;;;22.60;99.90;;;;;;5121179;27;20533;-61
2022/08/18 00:27:20;;;;;;;9.95;7.78;;;22.60;99.90;;;;;;5105263;27;20134;-62
2022/08/18 00:29:51;;;;;;;12.60;8.85;;;22.90;99.90;;;;;;5097582;27;20132;-63
2022/08/18 00:32:32;;;;;;;14.10;8.25;;;23.10;99.90;;;;;;5119557;27;20089;-63
2022/08/18 00:35:07;;;;;;;;;;;23.20;99.90;;;;;;5098104;27;20040;-61
2022/08/18 00:37:36;;;;;;;13.93;8.45;;;23.20;99.90;;;;;;5115314;27;20464;-61
2022/08/18 00:40:05;;;;;;;15.63;8.35;;;23.30;99.90;;;;;;5111206;27;20047;-61
2022/08/18 00:42:39;;;;;;;10.73;7.90;;;23.30;99.90;;;;;;5113400;27;20058;-62
2022/08/18 00:45:07;;;;;;;10.75;8.98;;;23.40;99.90;;;;;;5109987;27;20051;-61
2022/08/18 00:47:34;;;;;;;15.10;8.55;;;23.40;99.90;;;;;;5121124;27;20443;-62
2022/08/18 00:50:15;;;;;;;13.27;8.40;;;23.40;99.90;;;;;;5117031;27;20062;-62
2022/08/18 00:52:50;;;;;;;9.98;8.48;;;23.30;99.90;;;;;;5109665;27;20078;-62
2022/08/18 00:55:19;;;;;;;11.73;8.18;;;23.30;99.90;;;;;;5120696;27;20040;-63
2022/08/18 00:57:51;;;;;;;8.93;7.88;;;23.10;99.90;;;;;;5118473;27;20146;-62
2022/08/18 01:00:20;;;;;;;14.35;8.73;;;23.00;99.90;;;;;;5120931;27;20035;-62
2022/08/18 01:02:52;;;;;;;16.85;8.45;;;22.80;99.90;;;;;;5118135;27;20552;-62
2022/08/18 01:05:26;;;;;;;11.82;9.02;;;22.50;99.90;;;;;;5102883;27;20051;-62
2022/08/18 01:07:53;;;;;;;9.40;8.43;;;22.30;99.90;;;;;;5120633;27;20046;-61
2022/08/18 01:10:22;;;;;;;16.50;8.80;;;22.20;99.90;;;;;;5112677;27;20047;-61
2022/08/18 01:12:52;;;;;;;13.98;8.68;;;22.10;99.90;;;;;;5116250;27;20047;-62
2022/08/18 01:15:22;;;;;;;10.30;8.85;;;21.90;99.90;;;;;;5104683;27;20134;-62
2022/08/18 01:23:52;;;;;;;12.52;9.07;;;21.80;99.90;;;;;;5114656;27;20070;-62
2022/08/18 01:26:21;;;;;;;10.45;8.80;;;21.80;99.90;;;;;;5120822;27;20521;-62
2022/08/18 01:28:49;;;;;;;10.32;8.23;;;21.80;99.90;;;;;;5119826;27;20071;-62
2022/08/18 01:31:54;;;;;;;11.23;9.65;;;21.70;99.90;;;;;;5115545;27;20476;-61
2022/08/18 01:34:25;;;;;;;11.45;8.93;;;21.80;99.90;;;;;;5074700;27;20078;-62
2022/08/18 01:36:53;;;;;;;10.40;9.30;;;21.70;99.90;;;;;;5107393;27;20032;-61
2022/08/18 01:39:22;;;;;;;12.32;9.10;;;21.60;99.90;;;;;;5106027;27;20039;-61
2022/08/18 01:42:10;;;;;;;10.85;8.82;;;21.60;99.90;;;;;;5113610;27;20049;-62
2022/08/18 01:44:42;;;;;;;11.57;9.93;;;21.40;99.90;;;;;;5108664;27;20133;-64
2022/08/18 01:47:11;;;;;;;11.00;9.18;;;21.30;99.90;;;;;;5106417;27;20059;-63
2022/08/18 01:49:42;;;;;;;11.07;9.75;;;21.20;99.90;;;;;;5110375;27;20044;-62
2022/08/18 01:52:16;;;;;;;13.32;10.90;;;21.00;99.90;;;;;;5105140;27;20509;-63
2022/08/18 01:54:44;;;;;;;15.02;10.35;;;20.80;99.90;;;;;;5124789;27;20039;-64
2022/08/18 01:57:15;;;;;;;13.02;10.32;;;20.60;99.90;;;;;;5120191;27;20132;-64
2022/08/18 01:59:43;;;;;;;13.20;10.45;;;20.20;99.90;;;;;;5114570;27;20126;-64
2022/08/18 02:02:24;;;;;;;12.55;9.73;;;20.00;99.90;;;;;;5111289;27;20074;-65
2022/08/18 02:04:58;;;;;;;13.05;10.18;;;19.90;99.90;;;;;;5097145;28;20130;-63
2022/08/18 02:07:26;;;;;;;12.77;9.82;;;19.80;99.90;;;;;;5104443;27;20055;-63
2022/08/18 02:10:05;;;;;;;15.75;10.38;;;19.70;99.90;;;;;;5100993;27;20055;-63
2022/08/18 02:12:39;;;;;;;16.15;10.23;;;19.50;99.90;;;;;;5114725;27;20048;-63
2022/08/18 02:15:07;;;;;;;12.63;10.63;;;19.40;99.90;;;;;;5116413;27;20067;-63
2022/08/18 02:17:44;;;;;;;13.18;10.45;;;19.40;99.90;;;;;;5125004;27;20050;-64
2022/08/18 02:20:15;;;;;;;14.85;11.65;;;19.30;99.90;;;;;;5125385;27;20489;-64
2022/08/18 02:22:43;;;;;;;14.60;11.43;;;19.20;99.90;;;;;;5124353;27;20043;-66
2022/08/18 02:25:12;;;;;;;14.95;10.50;;;19.10;99.90;;;;;;5106517;27;20062;-64
2022/08/18 02:27:39;;;;;;;14.15;11.43;;;19.00;99.90;;;;;;5122153;27;20100;-64
2022/08/18 02:30:09;;;;;;;14.68;11.13;;;19.00;99.90;;;;;;5119974;27;20096;-64
2022/08/18 02:32:37;;;;;;;15.48;11.05;;;19.00;99.90;;;;;;5108897;27;20149;-64
2022/08/18 02:35:06;;;;;;;13.40;10.23;;;19.00;99.90;;;;;;5113233;27;20070;-64
2022/08/18 02:37:39;;;;;;;14.38;10.60;;;19.00;99.90;;;;;;5119855;27;20401;-64
2022/08/18 02:40:11;;;;;;;12.63;9.95;;;19.00;99.90;;;;;;5095901;27;20520;-64
2022/08/18 02:42:43;;;;;;;12.82;10.10;;;19.00;99.90;;;;;;5113185;27;20085;-64
2022/08/18 02:45:11;;;;;;;13.48;10.93;;;19.10;99.90;;;;;;5108000;27;20418;-64
2022/08/18 02:47:40;;;;;;;14.63;10.77;;;19.10;99.90;;;;;;5087477;28;20043;-64
2022/08/18 02:50:12;;;;;;;12.38;10.38;;;19.10;99.90;;;;;;5098392;27;20047;-64
2022/08/18 02:52:40;;;;;;;11.93;10.57;;;19.10;99.90;;;;;;5108997;28;20497;-65
2022/08/18 02:55:08;;;;;;;11.98;9.48;;;19.20;99.90;;;;;;5107168;28;20394;-65
2022/08/18 02:57:49;;;;;;;15.20;10.32;;;19.20;99.90;;;;;;5098200;27;20501;-64
2022/08/18 03:00:18;;;;;;;13.02;9.98;;;19.20;99.90;;;;;;5108191;28;20044;-64
2022/08/18 03:02:50;;;;;;;14.90;10.35;;;19.20;99.90;;;;;;5098339;28;20146;-64
2022/08/18 03:05:18;;;;;;;16.08;10.25;;;19.20;99.90;;;;;;5105141;28;20052;-64
2022/08/18 03:07:46;;;;;;;15.10;10.27;;;19.20;99.90;;;;;;5117021;27;20382;-64
2022/08/18 03:10:14;;;;;;;14.05;10.85;;;19.30;99.90;;;;;;5124729;27;20085;-64
2022/08/18 03:13:01;;;;;;;14.80;10.25;;;19.30;99.90;;;;;;5124232;28;20031;-64
2022/08/18 03:15:28;;;;;;;12.85;10.55;;;19.30;99.90;;;;;;5113187;27;20132;-65
2022/08/18 03:17:56;;;;;;;14.98;10.40;;;19.40;99.90;;;;;;5098037;27;20047;-65
2022/08/18 03:20:25;;;;;;;11.60;10.40;;;19.40;99.90;;;;;;5111854;27;20523;-65
2022/08/18 03:22:57;;;;;;;11.30;9.48;;;19.40;99.90;;;;;;5115662;27;20532;-64
2022/08/18 03:25:25;;;;;;;13.75;9.60;;;19.50;99.90;;;;;;5107560;27;20040;-64
2022/08/18 03:27:52;;;;;;;14.02;10.50;;;19.50;99.90;;;;;;5112949;27;20109;-63
2022/08/18 03:30:20;;;;;;;13.63;10.35;;;19.50;99.90;;;;;;5114066;27;20442;-63
2022/08/18 03:32:47;;;;;;;12.15;10.43;;;19.40;99.90;;;;;;5111657;27;20067;-64
2022/08/18 03:35:15;;;;;;;13.82;10.95;;;19.40;99.90;;;;;;5099858;27;20062;-65
2022/08/18 03:37:43;;;;;;;16.10;11.35;;;19.40;99.90;;;;;;5112342;27;20126;-64
2022/08/18 03:40:11;;;;;;;13.88;10.90;;;19.40;99.90;;;;;;5100737;27;20461;-64
2022/08/18 03:42:38;;;;;;;12.85;10.90;;;19.40;99.90;;;;;;5117258;27;20043;-64
2022/08/18 03:45:06;;;;;;;14.38;11.32;;;19.50;99.90;;;;;;5123092;27;20498;-64
2022/08/18 03:47:44;;;;;;;15.05;10.57;;;19.50;99.90;;;;;;5099613;27;20139;-64
2022/08/18 03:50:12;;;;;;;17.08;12.23;;;19.50;99.90;;;;;;5111465;27;20043;-64
2022/08/18 03:52:40;;;;;;;14.57;12.23;;;19.50;99.90;;;;;;5108492;27;20517;-64
2022/08/18 03:55:10;;;;;;;14.02;10.43;;;19.50;99.90;;;;;;5111246;27;20098;-64
2022/08/18 03:57:38;;;;;;;11.20;10.00;;;19.40;99.90;;;;;;5101954;27;20476;-65
2022/08/18 04:00:08;;;;;;;14.35;11.20;;;19.40;99.90;;;;;;5112492;27;20134;-64
2022/08/18 04:02:35;;;;;;;16.85;10.85;;;19.40;99.90;;;;;;5116522;27;20116;-64
2022/08/18 04:05:03;;;;;;;12.18;9.88;;;19.50;99.90;;;;;;5102274;27;20581;-64
2022/08/18 04:07:31;;;;;;;13.80;11.15;;;19.50;99.90;;;;;;5118907;27;20121;-64
2022/08/18 04:09:58;;;;;;;12.80;9.70;;;19.50;99.90;;;;;;5110310;27;20553;-65
2022/08/18 04:12:26;;;;;;;14.52;9.90;;;19.50;99.90;;;;;;5102835;28;20047;-65
2022/08/18 04:14:53;;;;;;;16.75;10.85;;;19.50;99.90;;;;;;5118213;27;20045;-63
2022/08/18 04:17:24;;;;;;;15.45;9.63;;;19.50;99.90;;;;;;5122204;27;20035;-64
2022/08/18 04:19:52;;;;;;;14.57;10.63;;;19.50;99.90;;;;;;5120935;27;20040;-64
2022/08/18 04:22:20;;;;;;;14.77;10.60;;;19.50;99.90;;;;;;5102785;27;20140;-64
2022/08/18 04:24:49;;;;;;;12.32;9.45;;;19.50;99.90;;;;;;5123207;27;20490;-64
2022/08/18 04:27:18;;;;;;;12.52;9.85;;;19.60;99.90;;;;;;5100535;27;20043;-64
2022/08/18 04:29:45;;;;;;;12.70;11.25;;;19.60;99.90;;;;;;5120510;27;20142;-64
2022/08/18 04:32:13;;;;;;;16.88;11.00;;;19.70;99.90;;;;;;5121509;27;20061;-64
2022/08/18 04:34:40;;;;;;;15.15;10.32;;;19.70;99.90;;;;;;5117978;27;20069;-64
2022/08/18 04:37:08;;;;;;;12.43;10.27;;;19.80;99.90;;;;;;5093483;27;20421;-64
2022/08/18 04:39:36;;;;;;;14.90;10.05;;;19.70;99.90;;;;;;5108094;28;20131;-64
2022/08/18 04:42:04;;;;;;;12.05;9.57;;;19.70;99.90;;;;;;5112023;27;20486;-63
2022/08/18 04:44:32;;;;;;;13.55;10.50;;;19.70;99.90;;;;;;5121132;27;20063;-64
2022/08/18 04:47:01;;;;;;;12.38;10.32;;;19.80;99.90;;;;;;5123539;27;20046;-64
2022/08/18 04:49:30;;;;;;;12.25;10.43;;;19.80;99.90;;;;;;5122464;27;20603;-64
2022/08/18 04:55:04;;;;;;;14.77;10.82;;;19.90;99.90;;;;;;5112283;27;20485;-64
2022/08/18 04:57:32;;;;;;;13.38;10.18;;;19.90;99.90;;;;;;5108095;27;20043;-64
2022/08/18 05:00:03;;;;;;;12.70;9.38;;;19.90;99.90;;;;;;5115409;27;20050;-64
2022/08/18 05:02:31;;;;;;;16.48;11.38;;;20.00;99.90;;;;;;5116358;27;20498;-65
2022/08/18 05:05:02;;;;;;;12.35;11.05;;;20.00;99.90;;;;;;5100272;28;20083;-64
2022/08/18 05:07:29;;;;;;;10.57;9.48;;;20.10;99.90;;;;;;5121406;27;20046;-64
2022/08/18 05:09:56;;;;;;;11.73;9.30;;;20.10;99.90;;;;;;5118095;27;20413;-64
2022/08/18 05:12:24;;;;;;;12.52;10.73;;;20.10;99.90;;;;;;5111318;27;20075;-64
2022/08/18 05:14:55;;;;;;;18.67;11.63;;;20.10;99.90;;;;;;5115330;27;20035;-65
2022/08/18 05:17:27;;;;;;;12.70;11.15;;;20.20;99.90;;;;;;5109537;27;20046;-64
2022/08/18 05:19:57;;;;;;;14.00;11.32;;;20.20;99.90;;;;;;5115442;27;20481;-64
2022/08/18 05:22:24;;;;;;;12.60;11.30;;;20.30;99.90;;;;;;5109970;27;20466;-64
2022/08/18 05:24:57;;;;;;;13.38;10.68;;;20.30;99.90;;;;;;5100179;27;20044;-64
2022/08/18 05:27:29;;;;;;;16.40;11.60;;;20.50;99.90;;;;;;5117190;27;20042;-65
2022/08/18 05:29:56;;;;;;;17.95;11.75;;;20.50;99.90;;;;;;5122896;27;20257;-64
2022/08/18 05:32:23;;;;;;;15.40;12.40;;;20.70;99.90;;;;;;5112043;27;20476;-64
2022/08/18 05:35:15;;;;;;;15.88;12.35;;;20.70;99.90;;;;;;5115841;27;20036;-64
2022/08/18 05:37:55;;;;;;;17.10;12.85;;;20.80;99.90;;;;;;5090929;27;20040;-64
2022/08/18 05:40:24;;;;;;;13.63;11.65;;;20.80;99.90;;;;;;5097996;27;20101;-64
2022/08/18 05:42:56;;;;;;;15.55;11.68;;;20.80;99.90;;;;;;5112513;27;20122;-64
2022/08/18 05:45:23;;;;;;;14.88;12.13;;;20.80;99.90;;;;;;5099597;27;20044;-65
2022/08/18 05:47:58;;;;;;;14.27;10.98;;;20.80;99.90;;;;;;5116553;27;20108;-64
2022/08/18 05:50:28;;;;;;;15.20;11.77;;;20.80;99.90;;;;;;5115052;27;20544;-64
2022/08/18 05:52:58;;;;;;;14.45;11.63;;;20.70;99.90;;;;;;5116880;27;20047;-64
2022/08/18 05:58:45;;;;;;;17.35;12.18;;;20.80;99.90;;;;;;5112457;27;20134;-64
2022/08/18 06:01:24;;;;;;;16.35;12.23;;;20.70;99.90;;;;;;5120781;27;20047;-65
2022/08/18 06:03:58;;;;;;;14.30;12.85;;;20.60;99.90;;;;;;5120917;27;20057;-64
2022/08/18 06:06:31;;;;;;;21.02;16.40;;;20.60;99.90;;;;;;5097282;27;20055;-65
2022/08/18 06:09:10;;;;;;;14.65;12.25;;;20.70;99.90;;;;;;5117461;27;20077;-65
2022/08/18 06:11:38;;;;;;;14.57;12.52;;;20.70;99.90;;;;;;5115808;27;20041;-65
2022/08/18 06:14:05;;;;;;;12.60;11.30;;;20.70;99.90;;;;;;5116805;27;20196;-64
2022/08/18 06:16:52;;;;;;;16.52;12.90;;;20.60;99.90;;;;;;5105524;27;20035;-65
2022/08/18 06:19:19;;;;;;;16.10;12.63;;;20.70;99.90;;;;;;5106849;27;20188;-65
2022/08/18 06:22:10;;;;;;;20.48;13.15;;;20.70;99.90;;;;;;5096637;27;20118;-65
2022/08/18 06:25:12;;;;;;;14.90;13.30;;;20.80;99.90;;;;;;5109020;27;20470;-63
2022/08/18 06:27:46;;;;;;;13.23;11.82;;;20.80;99.90;;;;;;5122264;27;20057;-64
2022/08/18 06:30:25;;;;;;;15.23;13.10;;;20.90;99.90;;;;;;5112849;27;20054;-63
2022/08/18 06:33:28;;;;;;;14.98;10.93;;;21.00;99.90;;;;;;5092165;28;20040;-63
2022/08/18 06:36:07;;;;;;;16.23;12.00;;;21.00;99.90;;;;;;5107044;27;20035;-65
2022/08/18 06:38:44;;;;;;;;;;;21.00;99.90;;;;;;5105132;27;20583;-64
2022/08/18 06:41:17;;;;;;;15.25;11.85;;;21.10;99.90;;;;;;5099648;27;19963;-64
2022/08/18 06:44:16;;;;;;;15.48;11.52;;;21.10;99.90;;;;;;5117419;27;20540;-63
2022/08/18 06:47:11;;;;;;;14.07;11.38;;;21.20;99.90;;;;;;5111251;27;20501;-64
2022/08/18 06:49:53;;;;;;;12.90;11.40;;;21.20;99.90;;;;;;5110650;27;20046;-64
2022/08/18 06:52:25;;;;;;;13.38;11.45;;;21.20;99.90;;;;;;5105272;27;20501;-65
2022/08/18 06:54:55;;;;;;;16.52;12.25;;;21.40;99.90;;;;;;5117622;27;20039;-65
2022/08/18 06:57:36;;;;;;;15.10;10.82;;;21.40;99.90;;;;;;5115465;27;20480;-64
2022/08/18 07:00:07;;;;;;;15.70;10.77;;;21.40;99.90;;;;;;5097703;28;20052;-64
2022/08/18 07:02:37;;;;;;;15.38;12.27;;;21.30;99.90;;;;;;5106425;28;20059;-65
2022/08/18 07:05:11;;;;;;;13.85;11.73;;;21.40;99.90;;;;;;5097989;28;20652;-64
2022/08/18 07:07:40;;;;;;;12.82;11.38;;;21.30;99.90;;;;;;5103827;28;20036;-64
2022/08/18 07:10:36;;;;;;;16.95;12.48;;;21.40;99.90;;;;;;5098381;28;20075;-64
2022/08/18 07:13:13;;;;;;;14.88;12.05;;;21.40;99.90;;;;;;5107818;28;20127;-64
2022/08/18 07:15:44;;;;;;;12.32;9.95;;;21.40;99.90;;;;;;5108513;28;20079;-65
2022/08/18 07:18:13;;;;;;;14.40;12.10;;;21.50;99.90;;;;;;5113281;28;20516;-64
2022/08/18 07:20:54;;;;;;;13.43;12.05;;;21.60;99.90;;;;;;5104457;28;20134;-64
2022/08/18 07:23:37;;;;;;;15.07;12.32;;;21.80;99.90;;;;;;5111907;28;20126;-64
2022/08/18 07:26:16;;;;;;;16.00;13.05;;;21.80;99.90;;;;;;5117702;28;20082;-65
2022/08/18 07:28:49;;;;;;;13.70;11.90;;;21.90;99.90;;;;;;5126109;27;20035;-64
2022/08/18 07:31:25;;;;;;;15.02;11.52;;;21.90;99.90;;;;;;5104489;28;20476;-64
2022/08/18 07:34:11;;;;;;;14.13;12.63;;;21.90;99.90;;;;;;5113015;27;20062;-65
2022/08/18 07:36:49;;;;;;;16.15;13.80;;;22.10;99.90;;;;;;5107171;28;20078;-64
2022/08/18 07:39:26;;;;;;;15.65;13.77;;;22.10;99.90;;;;;;5097402;28;20439;-64
2022/08/18 07:42:32;;;;;;;14.20;12.68;;;22.30;99.90;;;;;;5119365;28;20042;-65
2022/08/18 07:45:30;;;;;;;14.55;12.55;;;22.50;99.90;;;;;;5107772;28;20043;-64
2022/08/18 07:48:11;;;;;;;14.63;12.20;;;22.80;99.90;;;;;;5113092;27;20064;-65
2022/08/18 07:50:59;;;;;;;17.42;14.63;;;22.50;99.90;;;;;;5109165;28;20501;-64
2022/08/18 07:53:55;;;;;;;16.58;13.32;;;22.80;99.90;;;;;;5108056;28;20054;-64
2022/08/18 07:56:46;;;;;;;18.05;14.68;;;23.10;99.90;;;;;;5101819;28;20071;-64
2022/08/18 07:59:31;;;;;;;15.63;13.40;;;23.30;99.90;;;;;;5110294;28;20043;-64
2022/08/18 08:02:17;;;;;;;15.23;13.40;;;23.20;99.90;;;;;;5122777;27;20067;-64
2022/08/18 08:05:02;;;;;;;14.93;13.32;;;23.20;99.90;;;;;;5096707;28;20055;-65
2022/08/18 08:07:48;;;;;;;15.60;13.38;;;23.30;99.90;;;;;;5111067;27;20092;-64
2022/08/18 08:10:28;;;;;;;15.02;12.88;;;23.60;99.90;;;;;;5097271;27;20055;-64
2022/08/18 08:13:15;;;;;;;17.13;13.18;;;24.00;99.90;;;;;;5117836;27;20043;-64
2022/08/18 08:16:08;;;;;;;14.90;12.88;;;24.00;99.90;;;;;;5114433;27;20038;-64
2022/08/18 08:18:58;;;;;;;16.25;13.25;;;24.00;99.90;;;;;;5111820;27;20048;-65
2022/08/18 08:21:30;;;;;;;17.20;13.55;;;24.40;99.90;;;;;;5111628;27;20411;-64
2022/08/18 08:24:27;;;;;;;13.40;12.00;;;24.40;99.90;;;;;;5130127;27;20215;-65
2022/08/18 08:27:03;;;;;;;15.50;13.93;;;24.70;99.90;;;;;;5105505;27;20503;-65
2022/08/18 08:29:47;;;;;;;14.13;12.80;;;24.90;99.90;;;;;;5102330;27;20127;-65
2022/08/18 08:32:48;;;;;;;13.32;12.07;;;24.70;99.90;;;;;;5125219;27;20130;-64
2022/08/18 08:35:34;;;;;;;14.90;12.85;;;24.60;99.90;;;;;;5096805;27;20047;-64
2022/08/18 08:38:38;;;;;;;13.55;12.18;;;24.80;99.90;;;;;;5103189;27;20048;-65
2022/08/18 08:41:18;;;;;;;15.45;13.95;;;24.90;99.90;;;;;;5118419;27;20050;-65
2022/08/18 08:44:06;;;;;;;14.95;13.25;;;24.90;99.90;;;;;;5107604;27;20048;-66
2022/08/18 08:46:49;;;;;;;17.55;13.90;;;24.90;99.90;;;;;;5102747;27;20046;-66
2022/08/18 08:50:01;;;;;;;15.55;13.63;;;24.80;99.90;;;;;;5115362;27;20481;-65
2022/08/18 08:53:03;;;;;;;14.07;12.80;;;24.70;99.90;;;;;;5044815;28;20053;-65
2022/08/18 08:55:34;;;;;;;14.10;12.63;;;25.00;99.90;;;;;;5047833;28;20076;-65
2022/08/18 08:58:07;;;;;;;14.75;13.40;;;24.90;99.90;;;;;;5052193;28;20523;-65
2022/08/18 09:00:38;;;;;;;13.63;12.32;;;24.90;99.90;;;;;;5047429;28;20049;-65
2022/08/18 09:03:30;;;;;;;14.77;12.00;;;25.10;99.90;;;;;;5051193;28;20063;-65
2022/08/18 09:06:25;;;;;;;12.55;11.32;;;25.30;99.90;;;;;;5046040;28;20530;-65
2022/08/18 09:09:18;;;;;;;13.20;11.63;;;25.50;99.90;;;;;;5046661;28;20059;-64
2022/08/18 09:12:06;;;;;;;14.45;11.85;;;25.30;99.90;;;;;;5043703;28;20550;-64
2022/08/18 09:15:01;;;;;;;14.85;11.80;;;25.30;99.90;;;;;;5047184;28;20124;-64
2022/08/18 09:17:36;;;;;;;12.95;11.63;;;25.30;99.90;;;;;;5046396;28;20484;-64
2022/08/18 09:20:35;;;;;;;13.68;12.13;;;25.50;99.90;;;;;;5046555;28;20595;-64
2022/08/18 09:23:20;;;;;;;13.60;12.20;;;25.80;99.90;;;;;;5045660;28;20643;-65
2022/08/18 09:25:59;;;;;;;13.60;12.18;;;26.00;99.90;;;;;;5064683;28;20134;-65
2022/08/18 09:28:29;;;;;;;13.02;11.82;;;26.20;99.90;;;;;;5109305;27;20039;-65
2022/08/18 09:31:05;;;;;;;13.23;11.43;;;26.40;99.90;;;;;;5119409;27;20039;-64
2022/08/18 09:33:44;;;;;;;12.02;10.82;;;26.20;99.90;;;;;;5110465;27;20063;-65
2022/08/18 09:36:30;;;;;;;12.50;11.15;;;26.50;99.90;;;;;;5109712;27;20152;-66
2022/08/18 09:42:40;;;;;;;10.95;10.02;;;26.60;99.90;;;;;;5118107;27;20505;-64
2022/08/18 09:45:30;;;;;;;14.77;11.98;;;26.70;99.90;;;;;;5104834;27;20051;-65
2022/08/18 09:48:13;;;;;;;13.55;11.40;;;26.70;99.90;;;;;;5111187;27;20088;-64
2022/08/18 09:51:31;;;;;;;22.02;17.88;;;26.60;99.90;;;;;;5111159;27;20065;-65
2022/08/18 09:54:47;;;;;;;11.75;10.55;;;26.80;99.90;;;;;;5106106;27;20441;-64
2022/08/18 09:57:29;;;;;;;13.07;11.77;;;27.20;99.90;;;;;;5119529;27;20127;-63
2022/08/18 10:00:11;;;;;;;12.27;11.18;;;27.30;99.90;;;;;;5127662;27;20480;-64
2022/08/18 10:02:40;;;;;;;11.38;10.27;;;27.20;99.90;;;;;;5123575;27;20074;-64
2022/08/18 10:05:29;;;;;;;10.95;10.05;;;27.10;99.90;;;;;;5095437;28;20071;-64
2022/08/18 10:08:13;;;;;;;11.77;10.75;;;27.10;99.90;;;;;;5109530;27;20354;-65
2022/08/18 10:11:28;;;;;;;12.95;11.85;;;27.10;99.90;;;;;;5096316;27;20490;-64
2022/08/18 10:14:06;;;;;;;13.38;12.13;;;27.00;99.90;;;;;;5094245;27;20501;-64
2022/08/18 10:17:03;;;;;;;13.20;12.00;;;26.80;99.90;;;;;;5113540;27;20560;-65
2022/08/18 10:20:28;;;;;;;11.90;10.90;;;26.60;99.90;;;;;;5093742;27;20042;-65
2022/08/18 10:22:56;;;;;;;12.70;11.38;;;27.40;99.90;;;;;;5092100;27;20530;-64
2022/08/18 10:25:30;;;;;;;12.30;11.10;;;27.90;99.90;;;;;;5106820;28;20050;-65
2022/08/18 10:27:58;;;;;;;13.23;11.82;;;28.10;99.90;;;;;;5096693;27;20039;-65
2022/08/18 10:30:32;;;;;;;12.52;11.43;;;27.90;99.90;;;;;;5102204;27;20438;-64
2022/08/18 10:33:08;;;;;;;12.40;11.30;;;27.70;99.90;;;;;;5117552;27;20105;-64
2022/08/18 10:35:58;;;;;;;12.88;11.77;;;27.50;99.90;;;;;;5091485;27;20335;-63
2022/08/18 10:38:40;;;;;;;12.60;11.27;;;27.30;99.90;;;;;;5102329;27;20067;-65
2022/08/18 10:41:28;;;;;;;12.90;11.50;;;27.60;99.90;;;;;;5091062;27;20525;-65
2022/08/18 10:43:58;;;;;;;14.73;11.35;;;27.60;99.90;;;;;;5107734;27;20054;-64
2022/08/18 10:46:32;;;;;;;12.25;11.15;;;27.90;99.90;;;;;;5108385;27;20494;-64
2022/08/18 10:49:12;;;;;;;11.95;10.82;;;28.50;99.90;;;;;;5109850;27;20092;-64
2022/08/18 10:52:09;;;;;;;12.43;11.32;;;28.60;99.90;;;;;;5115058;27;20572;-64
2022/08/18 10:55:09;;;;;;;16.33;11.55;;;28.70;99.90;;;;;;5096283;28;20135;-64
2022/08/18 10:57:42;;;;;;;12.25;11.05;;;28.90;99.90;;;;;;5109991;27;20035;-64
2022/08/18 11:00:18;;;;;;;13.38;12.00;;;29.00;99.90;;;;;;5110294;28;20924;-65
2022/08/18 11:03:08;;;;;;;12.20;10.90;;;29.40;99.90;;;;;;5116247;27;20039;-64
2022/08/18 11:06:05;;;;;;;12.05;10.95;;;29.90;99.90;;;;;;5095757;28;20046;-65
2022/08/18 11:08:48;;;;;;;13.05;11.40;;;29.60;99.90;;;;;;5116286;27;20043;-64
2022/08/18 11:11:28;;;;;;;11.82;10.82;;;29.00;99.90;;;;;;5119822;27;20047;-64
2022/08/18 11:14:22;;;;;;;11.85;10.85;;;28.60;99.90;;;;;;5113199;28;20063;-63
2022/08/18 11:17:09;;;;;;;13.02;11.80;;;28.30;99.90;;;;;;5095502;28;20051;-64
2022/08/18 11:19:39;;;;;;;12.70;11.48;;;28.30;99.90;;;;;;5093628;28;20047;-64
2022/08/18 11:22:26;;;;;;;12.48;11.27;;;28.30;99.90;;;;;;5097704;28;20040;-66
2022/08/18 11:25:00;;;;;;;14.02;12.73;;;28.50;99.90;;;;;;5097739;28;20774;-64
2022/08/18 11:27:36;;;;;;;15.88;13.02;;;28.30;99.90;;;;;;5106694;28;20046;-63
2022/08/18 11:30:09;;;;;;;11.77;10.77;;;28.80;99.90;;;;;;5098609;28;20127;-63
2022/08/18 11:32:41;;;;;;;12.93;11.60;;;29.20;99.90;;;;;;5118575;28;20048;-64
2022/08/18 11:35:26;;;;;;;20.23;13.43;;;29.90;99.90;;;;;;5108066;28;20491;-64
2022/08/18 11:37:57;;;;;;;13.30;11.93;;;30.50;99.90;;;;;;5101073;28;20036;-64
2022/08/18 11:40:30;;;;;;;13.15;11.95;;;30.60;99.90;;;;;;5107342;27;20121;-64
2022/08/18 11:43:19;;;;;;;;;;;30.10;99.90;;;;;;5109606;27;20039;-64
2022/08/18 11:45:51;;;;;;;12.25;11.23;;;30.30;99.90;;;;;;5119463;27;20017;-65
2022/08/18 11:48:27;;;;;;;12.43;11.23;;;30.60;99.90;;;;;;5123075;27;20044;-64
2022/08/18 11:51:16;;;;;;;12.90;11.60;;;30.90;99.90;;;;;;5112692;27;20595;-64
2022/08/18 11:53:56;;;;;;;13.35;12.00;;;31.00;99.90;;;;;;5114705;27;20481;-64
2022/08/18 11:56:30;;;;;;;11.45;10.45;;;30.20;99.90;;;;;;5120190;27;20047;-65
2022/08/18 11:59:25;;;;;;;15.38;13.55;;;29.70;99.90;;;;;;5106229;27;20389;-65
2022/08/18 12:02:17;;;;;;;12.77;11.52;;;29.20;99.90;;;;;;5106986;27;20359;-64
2022/08/18 12:04:51;;;;;;;13.65;12.20;;;28.70;99.90;;;;;;5094108;28;20143;-64
2022/08/18 12:07:30;;;;;;;13.32;12.02;;;28.70;99.90;;;;;;5116156;27;20037;-63
2022/08/18 12:10:07;;;;;;;12.30;11.27;;;28.60;99.90;;;;;;5107880;27;20043;-64
2022/08/18 12:12:58;;;;;;;13.27;12.18;;;28.70;99.90;;;;;;5128399;27;20442;-64
2022/08/18 12:15:33;;;;;;;12.32;11.13;;;29.20;99.90;;;;;;5110911;27;20478;-63
2022/08/18 12:18:21;;;;;;;12.57;10.88;;;29.30;99.90;;;;;;5110321;27;20663;-63
2022/08/18 12:20:58;;;;;;;13.15;11.20;;;29.50;99.90;;;;;;5112564;27;20417;-64
2022/08/18 12:23:31;;;;;;;12.30;11.20;;;29.70;99.90;;;;;;5117415;27;20382;-64
2022/08/18 12:26:15;;;;;;;14.38;11.13;;;29.80;99.90;;;;;;5118710;27;20382;-64
2022/08/18 12:29:02;;;;;;;11.93;10.73;;;29.40;99.90;;;;;;5128789;27;20527;-64
2022/08/18 12:31:29;;;;;;;13.35;11.35;;;28.90;99.90;;;;;;5130143;27;20540;-64
2022/08/18 12:34:16;;;;;;;11.60;10.50;;;28.80;99.90;;;;;;5105932;27;20077;-63
2022/08/18 12:36:56;;;;;;;12.18;10.85;;;28.60;99.90;;;;;;5120860;27;20555;-64
2022/08/18 12:39:24;;;;;;;12.75;11.63;;;28.60;99.90;;;;;;5120843;27;20453;-64
2022/08/18 12:41:51;;;;;;;13.00;11.68;;;28.60;99.90;;;;;;5114968;27;20512;-65
2022/08/18 12:44:19;;;;;;;13.50;11.13;;;28.90;99.90;;;;;;5096377;28;20067;-64
2022/08/18 12:46:48;;;;;;;12.30;11.10;;;29.40;99.90;;;;;;5120720;27;20043;-64
2022/08/18 12:49:22;;;;;;;12.05;11.05;;;29.80;99.90;;;;;;5094595;27;20064;-63
2022/08/18 12:51:50;;;;;;;12.50;11.30;;;30.30;99.90;;;;;;5122351;27;20134;-64
2022/08/18 12:54:21;;;;;;;12.48;11.23;;;30.50;99.90;;;;;;5092986;27;20375;-63
2022/08/18 12:56:53;;;;;;;12.52;11.27;;;30.80;99.90;;;;;;5095306;27;20040;-64
2022/08/18 12:59:22;;;;;;;15.20;11.50;;;30.60;99.90;;;;;;5114609;27;20041;-64
2022/08/18 13:01:51;;;;;;;12.30;11.00;;;30.50;99.90;;;;;;5106914;27;20573;-64
2022/08/18 13:04:25;;;;;;;14.88;12.82;;;30.20;99.90;;;;;;5110729;27;20044;-63
2022/08/18 13:06:55;;;;;;;12.55;11.35;;;30.70;99.90;;;;;;5115110;27;20039;-64
2022/08/18 13:09:30;;;;;;;13.48;11.27;;;31.20;99.90;;;;;;5088127;28;20040;-64
2022/08/18 13:12:09;;;;;;;11.37;10.03;;;31.50;99.90;;;;;;5101491;27;20044;-65
2022/08/18 13:14:41;;;;;;;11.77;10.57;;;32.60;99.90;;;;;;5115104;27;20035;-64
2022/08/18 13:17:10;;;;;;;11.30;10.40;;;33.30;99.90;;;;;;5103366;27;20042;-64
2022/08/18 13:19:58;;;;;;;11.35;10.25;;;33.80;99.90;;;;;;5106475;27;20041;-65
2022/08/18 13:22:28;;;;;;;12.40;10.90;;;34.40;99.90;;;;;;5120756;27;20569;-65
2022/08/18 13:24:59;;;;;;;13.18;11.65;;;34.90;99.90;;;;;;5123360;27;20075;-66
2022/08/18 13:27:27;;;;;;;12.27;11.07;;;34.40;99.90;;;;;;5120835;27;20147;-64
2022/08/18 13:30:06;;;;;;;11.50;10.50;;;35.00;99.10;;;;;;5122373;27;20058;-64
2022/08/18 13:32:53;;;;;;;11.40;10.40;;;35.00;98.10;;;;;;5102068;27;20494;-65
2022/08/18 13:35:31;;;;;;;11.57;10.63;;;35.20;97.00;;;;;;5116181;27;20062;-65